sensor_id;sensor_type;location;lat;lon;timestamp;temperature;humidity
64715;DHT22;51144;53.002;6.506;2023-05-07T00:00:19;13.50;99.90
64715;DHT22;51144;53.002;6.506;2023-05-07T00:02:45;13.50;99.90
64715;DHT22;51144;53.002;6.506;2023-05-07T00:05:12;13.50;99.90
64715;DHT22;51144;53.002;6.506;2023-05-07T00:07:37;13.50;99.90
64715;DHT22;51144;53.002;6.506;2023-05-07T00:10:03;13.50;99.90
64715;DHT22;51144;53.002;6.506;2023-05-07T00:12:29;13.50;99.90
64715;DHT22;51144;53.002;6.506;2023-05-07T00:14:56;13.50;99.90
64715;DHT22;51144;53.002;6.506;2023-05-07T00:17:22;13.40;99.90
64715;DHT22;51144;53.002;6.506;2023-05-07T00:19:48;13.40;99.90
64715;DHT22;51144;53.002;6.506;2023-05-07T00:22:13;13.30;99.90
64715;DHT22;51144;53.002;6.506;2023-05-07T00:24:39;13.30;99.90
64715;DHT22;51144;53.002;6.506;2023-05-07T00:27:05;13.30;99.90
64715;DHT22;51144;53.002;6.506;2023-05-07T00:29:30;13.30;99.90
64715;DHT22;51144;53.002;6.506;2023-05-07T00:31:56;13.30;99.90
64715;DHT22;51144;53.002;6.506;2023-05-07T00:34:21;13.20;99.90
64715;DHT22;51144;53.002;6.506;2023-05-07T00:36:47;13.20;99.90
64715;DHT22;51144;53.002;6.506;2023-05-07T00:39:13;13.20;99.90
64715;DHT22;51144;53.002;6.506;2023-05-07T00:41:38;13.20;99.90
64715;DHT22;51144;53.002;6.506;2023-05-07T00:44:04;13.20;99.90
64715;DHT22;51144;53.002;6.506;2023-05-07T00:46:30;13.10;99.90
64715;DHT22;51144;53.002;6.506;2023-05-07T00:48:56;13.10;99.90
64715;DHT22;51144;53.002;6.506;2023-05-07T00:51:22;13.10;99.90
64715;DHT22;51144;53.002;6.506;2023-05-07T00:53:48;13.00;99.90
64715;DHT22;51144;53.002;6.506;2023-05-07T00:56:14;13.00;99.90
64715;DHT22;51144;53.002;6.506;2023-05-07T00:58:40;13.00;99.90
64715;DHT22;51144;53.002;6.506;2023-05-07T01:01:06;13.00;99.90
64715;DHT22;51144;53.002;6.506;2023-05-07T01:03:32;13.00;99.90
64715;DHT22;51144;53.002;6.506;2023-05-07T01:05:58;12.90;99.90
64715;DHT22;51144;53.002;6.506;2023-05-07T01:08:24;12.90;99.90
64715;DHT22;51144;53.002;6.506;2023-05-07T01:10:52;13.00;99.90
64715;DHT22;51144;53.002;6.506;2023-05-07T01:13:18;12.90;99.90
64715;DHT22;51144;53.002;6.506;2023-05-07T01:15:44;12.80;99.90
64715;DHT22;51144;53.002;6.506;2023-05-07T01:18:09;12.80;99.90
64715;DHT22;51144;53.002;6.506;2023-05-07T01:20:35;12.80;99.90
64715;DHT22;51144;53.002;6.506;2023-05-07T01:23:00;12.80;99.90
64715;DHT22;51144;53.002;6.506;2023-05-07T01:25:26;12.80;99.90
64715;DHT22;51144;53.002;6.506;2023-05-07T01:27:52;12.70;99.90
64715;DHT22;51144;53.002;6.506;2023-05-07T01:30:17;12.60;99.90
64715;DHT22;51144;53.002;6.506;2023-05-07T01:32:48;12.60;99.90
64715;DHT22;51144;53.002;6.506;2023-05-07T01:35:23;12.60;99.90
64715;DHT22;51144;53.002;6.506;2023-05-07T01:37:50;12.50;99.90
64715;DHT22;51144;53.002;6.506;2023-05-07T01:40:15;12.50;99.90
64715;DHT22;51144;53.002;6.506;2023-05-07T01:42:42;12.50;99.90
64715;DHT22;51144;53.002;6.506;2023-05-07T01:45:08;12.40;99.90
64715;DHT22;51144;53.002;6.506;2023-05-07T01:47:34;12.40;99.90
64715;DHT22;51144;53.002;6.506;2023-05-07T01:49:59;12.30;99.90
64715;DHT22;51144;53.002;6.506;2023-05-07T01:52:26;12.30;99.90
64715;DHT22;51144;53.002;6.506;2023-05-07T01:54:52;12.30;99.90
64715;DHT22;51144;53.002;6.506;2023-05-07T01:57:18;12.30;99.90
64715;DHT22;51144;53.002;6.506;2023-05-07T01:59:43;12.20;99.90
64715;DHT22;51144;53.002;6.506;2023-05-07T02:02:09;12.20;99.90
64715;DHT22;51144;53.002;6.506;2023-05-07T02:04:35;12.20;99.90
64715;DHT22;51144;53.002;6.506;2023-05-07T02:07:00;12.10;99.90
64715;DHT22;51144;53.002;6.506;2023-05-07T02:09:26;12.10;99.90
64715;DHT22;51144;53.002;6.506;2023-05-07T02:11:51;12.10;99.90
64715;DHT22;51144;53.002;6.506;2023-05-07T02:14:17;12.10;99.90
64715;DHT22;51144;53.002;6.506;2023-05-07T02:16:42;12.10;99.90
64715;DHT22;51144;53.002;6.506;2023-05-07T02:19:08;12.00;99.90
64715;DHT22;51144;53.002;6.506;2023-05-07T02:21:33;12.00;99.90
64715;DHT22;51144;53.002;6.506;2023-05-07T02:23:59;12.00;99.90
64715;DHT22;51144;53.002;6.506;2023-05-07T02:26:24;12.00;99.90
64715;DHT22;51144;53.002;6.506;2023-05-07T02:28:51;12.00;99.90
64715;DHT22;51144;53.002;6.506;2023-05-07T02:31:17;12.00;99.90
64715;DHT22;51144;53.002;6.506;2023-05-07T02:33:42;12.00;99.90
64715;DHT22;51144;53.002;6.506;2023-05-07T02:36:09;12.00;99.90
64715;DHT22;51144;53.002;6.506;2023-05-07T02:38:34;11.90;99.90
64715;DHT22;51144;53.002;6.506;2023-05-07T02:41:00;11.90;99.90
64715;DHT22;51144;53.002;6.506;2023-05-07T02:43:25;11.90;99.90
64715;DHT22;51144;53.002;6.506;2023-05-07T02:46:03;11.80;99.90
64715;DHT22;51144;53.002;6.506;2023-05-07T02:48:29;11.80;99.90
64715;DHT22;51144;53.002;6.506;2023-05-07T02:50:55;11.80;99.90
64715;DHT22;51144;53.002;6.506;2023-05-07T02:53:20;11.80;99.90
64715;DHT22;51144;53.002;6.506;2023-05-07T02:55:46;11.80;99.90
64715;DHT22;51144;53.002;6.506;2023-05-07T02:58:11;11.80;99.90
64715;DHT22;51144;53.002;6.506;2023-05-07T03:00:37;11.80;99.90
64715;DHT22;51144;53.002;6.506;2023-05-07T03:03:02;11.80;99.90
64715;DHT22;51144;53.002;6.506;2023-05-07T03:05:28;11.70;99.90
64715;DHT22;51144;53.002;6.506;2023-05-07T03:07:53;11.80;99.90
64715;DHT22;51144;53.002;6.506;2023-05-07T03:10:19;11.80;99.90
64715;DHT22;51144;53.002;6.506;2023-05-07T03:12:44;11.70;99.90
64715;DHT22;51144;53.002;6.506;2023-05-07T03:15:10;11.70;99.90
64715;DHT22;51144;53.002;6.506;2023-05-07T03:17:38;11.70;99.90
64715;DHT22;51144;53.002;6.506;2023-05-07T03:20:03;11.70;99.90
64715;DHT22;51144;53.002;6.506;2023-05-07T03:22:29;11.60;99.90
64715;DHT22;51144;53.002;6.506;2023-05-07T03:24:55;11.60;99.90
64715;DHT22;51144;53.002;6.506;2023-05-07T03:27:20;11.60;99.90
64715;DHT22;51144;53.002;6.506;2023-05-07T03:29:46;11.60;99.90
64715;DHT22;51144;53.002;6.506;2023-05-07T03:32:11;11.60;99.90
64715;DHT22;51144;53.002;6.506;2023-05-07T03:34:37;11.50;99.90
64715;DHT22;51144;53.002;6.506;2023-05-07T03:37:02;11.50;99.90
64715;DHT22;51144;53.002;6.506;2023-05-07T03:39:28;11.50;99.90
64715;DHT22;51144;53.002;6.506;2023-05-07T03:41:53;11.40;99.90
64715;DHT22;51144;53.002;6.506;2023-05-07T03:44:18;11.50;99.90
64715;DHT22;51144;53.002;6.506;2023-05-07T03:46:44;11.50;99.90
64715;DHT22;51144;53.002;6.506;2023-05-07T03:49:09;11.40;99.90
64715;DHT22;51144;53.002;6.506;2023-05-07T03:51:35;11.50;99.90
64715;DHT22;51144;53.002;6.506;2023-05-07T03:54:01;11.40;99.90
64715;DHT22;51144;53.002;6.506;2023-05-07T03:56:26;11.40;99.90
64715;DHT22;51144;53.002;6.506;2023-05-07T03:58:53;11.40;99.90
64715;DHT22;51144;53.002;6.506;2023-05-07T04:01:18;11.40;99.90
64715;DHT22;51144;53.002;6.506;2023-05-07T04:03:44;11.40;99.90
64715;DHT22;51144;53.002;6.506;2023-05-07T04:06:10;11.40;99.90
64715;DHT22;51144;53.002;6.506;2023-05-07T04:08:35;11.40;99.90
64715;DHT22;51144;53.002;6.506;2023-05-07T04:11:01;11.40;99.90
64715;DHT22;51144;53.002;6.506;2023-05-07T04:13:26;11.50;99.90
64715;DHT22;51144;53.002;6.506;2023-05-07T04:15:52;11.40;99.90
64715;DHT22;51144;53.002;6.506;2023-05-07T04:18:18;11.40;99.90
64715;DHT22;51144;53.002;6.506;2023-05-07T04:20:43;11.40;99.90
64715;DHT22;51144;53.002;6.506;2023-05-07T04:23:09;11.40;99.90
64715;DHT22;51144;53.002;6.506;2023-05-07T04:25:34;11.40;99.90
64715;DHT22;51144;53.002;6.506;2023-05-07T04:28:00;11.30;99.90
64715;DHT22;51144;53.002;6.506;2023-05-07T04:30:25;11.30;99.90
64715;DHT22;51144;53.002;6.506;2023-05-07T04:32:51;11.30;99.90
64715;DHT22;51144;53.002;6.506;2023-05-07T04:35:17;11.30;99.90
64715;DHT22;51144;53.002;6.506;2023-05-07T04:37:42;11.30;99.90
64715;DHT22;51144;53.002;6.506;2023-05-07T04:40:08;11.30;99.90
64715;DHT22;51144;53.002;6.506;2023-05-07T04:42:33;11.40;99.90
64715;DHT22;51144;53.002;6.506;2023-05-07T04:44:59;11.40;99.90
64715;DHT22;51144;53.002;6.506;2023-05-07T04:47:25;11.30;99.90
64715;DHT22;51144;53.002;6.506;2023-05-07T04:49:51;11.30;99.90
64715;DHT22;51144;53.002;6.506;2023-05-07T04:52:16;11.30;99.90
64715;DHT22;51144;53.002;6.506;2023-05-07T04:54:42;11.30;99.90
64715;DHT22;51144;53.002;6.506;2023-05-07T04:57:07;11.30;99.90
64715;DHT22;51144;53.002;6.506;2023-05-07T04:59:33;11.30;99.90
64715;DHT22;51144;53.002;6.506;2023-05-07T05:01:58;11.30;99.90
64715;DHT22;51144;53.002;6.506;2023-05-07T05:04:24;11.30;99.90
64715;DHT22;51144;53.002;6.506;2023-05-07T05:06:49;11.30;99.90
64715;DHT22;51144;53.002;6.506;2023-05-07T05:09:15;11.30;99.90
64715;DHT22;51144;53.002;6.506;2023-05-07T05:11:41;11.30;99.90
64715;DHT22;51144;53.002;6.506;2023-05-07T05:14:06;11.30;99.90
64715;DHT22;51144;53.002;6.506;2023-05-07T05:16:32;11.30;99.90
64715;DHT22;51144;53.002;6.506;2023-05-07T05:18:58;11.30;99.90
64715;DHT22;51144;53.002;6.506;2023-05-07T05:21:23;11.30;99.90
64715;DHT22;51144;53.002;6.506;2023-05-07T05:23:49;11.30;99.90
64715;DHT22;51144;53.002;6.506;2023-05-07T05:26:14;11.30;99.90
64715;DHT22;51144;53.002;6.506;2023-05-07T05:28:40;11.40;99.90
64715;DHT22;51144;53.002;6.506;2023-05-07T05:31:05;11.30;99.90
64715;DHT22;51144;53.002;6.506;2023-05-07T05:33:31;11.30;99.90
64715;DHT22;51144;53.002;6.506;2023-05-07T05:35:56;11.30;99.90
64715;DHT22;51144;53.002;6.506;2023-05-07T05:38:22;11.30;99.90
64715;DHT22;51144;53.002;6.506;2023-05-07T05:40:47;11.40;99.90
64715;DHT22;51144;53.002;6.506;2023-05-07T05:43:13;11.40;99.90
64715;DHT22;51144;53.002;6.506;2023-05-07T05:45:39;11.40;99.90
64715;DHT22;51144;53.002;6.506;2023-05-07T05:48:04;11.30;99.90
64715;DHT22;51144;53.002;6.506;2023-05-07T05:50:30;11.30;99.90
64715;DHT22;51144;53.002;6.506;2023-05-07T05:52:55;11.30;99.90
64715;DHT22;51144;53.002;6.506;2023-05-07T05:55:21;11.40;99.90
64715;DHT22;51144;53.002;6.506;2023-05-07T05:57:47;11.40;99.90
64715;DHT22;51144;53.002;6.506;2023-05-07T06:00:13;11.40;99.90
64715;DHT22;51144;53.002;6.506;2023-05-07T06:02:39;11.40;99.90
64715;DHT22;51144;53.002;6.506;2023-05-07T06:05:04;11.50;99.90
64715;DHT22;51144;53.002;6.506;2023-05-07T06:07:30;11.50;99.90
64715;DHT22;51144;53.002;6.506;2023-05-07T06:09:55;11.50;99.90
64715;DHT22;51144;53.002;6.506;2023-05-07T06:12:21;11.40;99.90
64715;DHT22;51144;53.002;6.506;2023-05-07T06:14:46;11.50;99.90
64715;DHT22;51144;53.002;6.506;2023-05-07T06:17:12;11.50;99.90
64715;DHT22;51144;53.002;6.506;2023-05-07T06:19:38;11.50;99.90
64715;DHT22;51144;53.002;6.506;2023-05-07T06:22:03;11.50;99.90
64715;DHT22;51144;53.002;6.506;2023-05-07T06:24:29;11.50;99.90
64715;DHT22;51144;53.002;6.506;2023-05-07T06:26:54;11.50;99.90
64715;DHT22;51144;53.002;6.506;2023-05-07T06:29:20;11.50;99.90
64715;DHT22;51144;53.002;6.506;2023-05-07T06:31:46;11.50;99.90
64715;DHT22;51144;53.002;6.506;2023-05-07T06:34:11;11.50;99.90
64715;DHT22;51144;53.002;6.506;2023-05-07T06:36:42;11.50;99.90
64715;DHT22;51144;53.002;6.506;2023-05-07T06:39:07;11.60;99.90
64715;DHT22;51144;53.002;6.506;2023-05-07T06:41:33;11.50;99.90
64715;DHT22;51144;53.002;6.506;2023-05-07T06:43:59;11.60;99.90
64715;DHT22;51144;53.002;6.506;2023-05-07T06:46:25;11.60;99.90
64715;DHT22;51144;53.002;6.506;2023-05-07T06:48:50;11.60;99.90
64715;DHT22;51144;53.002;6.506;2023-05-07T06:51:17;11.70;99.90
64715;DHT22;51144;53.002;6.506;2023-05-07T06:53:42;11.70;99.90
64715;DHT22;51144;53.002;6.506;2023-05-07T06:56:08;11.70;99.90
64715;DHT22;51144;53.002;6.506;2023-05-07T06:58:33;11.80;99.90
64715;DHT22;51144;53.002;6.506;2023-05-07T07:00:59;11.70;99.90
64715;DHT22;51144;53.002;6.506;2023-05-07T07:03:25;11.80;99.90
64715;DHT22;51144;53.002;6.506;2023-05-07T07:05:54;11.80;99.90
64715;DHT22;51144;53.002;6.506;2023-05-07T07:08:19;11.90;99.90
64715;DHT22;51144;53.002;6.506;2023-05-07T07:10:46;11.90;99.90
64715;DHT22;51144;53.002;6.506;2023-05-07T07:13:12;11.90;99.90
64715;DHT22;51144;53.002;6.506;2023-05-07T07:15:38;11.90;99.90
64715;DHT22;51144;53.002;6.506;2023-05-07T07:18:03;11.90;99.90
64715;DHT22;51144;53.002;6.506;2023-05-07T07:20:29;11.90;99.90
64715;DHT22;51144;53.002;6.506;2023-05-07T07:22:55;11.90;99.90
64715;DHT22;51144;53.002;6.506;2023-05-07T07:25:20;11.90;99.90
64715;DHT22;51144;53.002;6.506;2023-05-07T07:27:46;12.00;99.90
64715;DHT22;51144;53.002;6.506;2023-05-07T07:30:11;12.10;99.90
64715;DHT22;51144;53.002;6.506;2023-05-07T07:32:37;12.10;99.90
64715;DHT22;51144;53.002;6.506;2023-05-07T07:35:02;12.10;99.90
64715;DHT22;51144;53.002;6.506;2023-05-07T07:37:28;12.00;99.90
64715;DHT22;51144;53.002;6.506;2023-05-07T07:39:54;12.00;99.90
64715;DHT22;51144;53.002;6.506;2023-05-07T07:42:20;12.00;99.90
64715;DHT22;51144;53.002;6.506;2023-05-07T07:44:45;12.10;99.90
64715;DHT22;51144;53.002;6.506;2023-05-07T07:47:10;12.10;99.90
64715;DHT22;51144;53.002;6.506;2023-05-07T07:49:36;12.20;99.90
64715;DHT22;51144;53.002;6.506;2023-05-07T07:52:02;12.20;99.90
64715;DHT22;51144;53.002;6.506;2023-05-07T07:54:27;12.20;99.90
64715;DHT22;51144;53.002;6.506;2023-05-07T07:56:55;12.20;99.90
64715;DHT22;51144;53.002;6.506;2023-05-07T07:59:21;12.20;99.90
64715;DHT22;51144;53.002;6.506;2023-05-07T08:01:46;12.30;99.90
64715;DHT22;51144;53.002;6.506;2023-05-07T08:04:13;12.30;99.90
64715;DHT22;51144;53.002;6.506;2023-05-07T08:06:39;12.40;99.90
64715;DHT22;51144;53.002;6.506;2023-05-07T08:09:04;12.50;99.90
64715;DHT22;51144;53.002;6.506;2023-05-07T08:11:30;12.60;99.90
64715;DHT22;51144;53.002;6.506;2023-05-07T08:13:55;12.70;99.90
64715;DHT22;51144;53.002;6.506;2023-05-07T08:16:21;12.80;99.90
64715;DHT22;51144;53.002;6.506;2023-05-07T08:18:46;12.80;99.90
64715;DHT22;51144;53.002;6.506;2023-05-07T08:21:12;12.80;99.90
64715;DHT22;51144;53.002;6.506;2023-05-07T08:23:37;12.90;99.90
64715;DHT22;51144;53.002;6.506;2023-05-07T08:26:03;12.90;99.90
64715;DHT22;51144;53.002;6.506;2023-05-07T08:28:29;13.00;99.90
64715;DHT22;51144;53.002;6.506;2023-05-07T08:30:54;13.10;99.90
64715;DHT22;51144;53.002;6.506;2023-05-07T08:33:21;13.20;99.90
64715;DHT22;51144;53.002;6.506;2023-05-07T08:35:47;13.30;99.90
64715;DHT22;51144;53.002;6.506;2023-05-07T08:38:12;13.40;99.90
64715;DHT22;51144;53.002;6.506;2023-05-07T08:40:38;13.50;99.90
64715;DHT22;51144;53.002;6.506;2023-05-07T08:43:07;13.60;99.90
64715;DHT22;51144;53.002;6.506;2023-05-07T08:45:33;13.70;99.90
64715;DHT22;51144;53.002;6.506;2023-05-07T08:47:59;13.70;99.90
64715;DHT22;51144;53.002;6.506;2023-05-07T08:50:25;13.60;99.90
64715;DHT22;51144;53.002;6.506;2023-05-07T08:52:51;13.70;99.90
64715;DHT22;51144;53.002;6.506;2023-05-07T08:55:16;13.70;99.90
64715;DHT22;51144;53.002;6.506;2023-05-07T08:57:42;13.80;99.90
64715;DHT22;51144;53.002;6.506;2023-05-07T09:00:08;13.90;99.90
64715;DHT22;51144;53.002;6.506;2023-05-07T09:02:37;14.10;99.90
64715;DHT22;51144;53.002;6.506;2023-05-07T09:05:03;14.00;99.90
64715;DHT22;51144;53.002;6.506;2023-05-07T09:07:28;14.00;99.90
64715;DHT22;51144;53.002;6.506;2023-05-07T09:09:55;14.00;99.90
64715;DHT22;51144;53.002;6.506;2023-05-07T09:12:22;14.00;99.90
64715;DHT22;51144;53.002;6.506;2023-05-07T09:14:48;14.00;99.90
64715;DHT22;51144;53.002;6.506;2023-05-07T09:17:15;14.20;99.90
64715;DHT22;51144;53.002;6.506;2023-05-07T09:19:40;14.40;99.90
64715;DHT22;51144;53.002;6.506;2023-05-07T09:22:06;14.60;99.90
64715;DHT22;51144;53.002;6.506;2023-05-07T09:24:34;14.90;99.90
64715;DHT22;51144;53.002;6.506;2023-05-07T09:27:03;15.20;99.90
64715;DHT22;51144;53.002;6.506;2023-05-07T09:29:28;15.50;99.90
64715;DHT22;51144;53.002;6.506;2023-05-07T09:31:55;15.90;99.90
64715;DHT22;51144;53.002;6.506;2023-05-07T09:34:21;16.20;99.90
64715;DHT22;51144;53.002;6.506;2023-05-07T09:36:47;16.20;99.90
64715;DHT22;51144;53.002;6.506;2023-05-07T09:39:13;16.10;99.90
64715;DHT22;51144;53.002;6.506;2023-05-07T09:41:45;16.10;99.90
64715;DHT22;51144;53.002;6.506;2023-05-07T09:44:10;16.10;99.90
64715;DHT22;51144;53.002;6.506;2023-05-07T09:46:36;15.80;99.90
64715;DHT22;51144;53.002;6.506;2023-05-07T09:49:03;15.90;99.90
64715;DHT22;51144;53.002;6.506;2023-05-07T09:51:34;16.00;99.90
64715;DHT22;51144;53.002;6.506;2023-05-07T09:54:03;16.00;99.90
64715;DHT22;51144;53.002;6.506;2023-05-07T09:56:30;16.10;99.90
64715;DHT22;51144;53.002;6.506;2023-05-07T09:58:57;16.30;99.90
64715;DHT22;51144;53.002;6.506;2023-05-07T10:01:24;16.50;99.90
64715;DHT22;51144;53.002;6.506;2023-05-07T10:03:50;16.50;99.90
64715;DHT22;51144;53.002;6.506;2023-05-07T10:06:16;16.70;99.90
64715;DHT22;51144;53.002;6.506;2023-05-07T10:08:42;16.80;99.90
64715;DHT22;51144;53.002;6.506;2023-05-07T10:11:08;16.80;99.90
64715;DHT22;51144;53.002;6.506;2023-05-07T10:13:35;16.90;99.90
64715;DHT22;51144;53.002;6.506;2023-05-07T10:16:01;17.00;99.90
64715;DHT22;51144;53.002;6.506;2023-05-07T10:18:28;17.20;99.90
64715;DHT22;51144;53.002;6.506;2023-05-07T10:21:07;17.30;99.90
64715;DHT22;51144;53.002;6.506;2023-05-07T10:23:33;17.10;99.90
64715;DHT22;51144;53.002;6.506;2023-05-07T10:26:00;17.20;99.90
64715;DHT22;51144;53.002;6.506;2023-05-07T10:28:27;17.30;99.90
64715;DHT22;51144;53.002;6.506;2023-05-07T10:33:24;17.50;99.90
64715;DHT22;51144;53.002;6.506;2023-05-07T10:35:51;17.30;99.90
64715;DHT22;51144;53.002;6.506;2023-05-07T10:38:21;17.40;99.90
64715;DHT22;51144;53.002;6.506;2023-05-07T10:40:46;17.60;99.90
64715;DHT22;51144;53.002;6.506;2023-05-07T10:43:12;17.50;99.90
64715;DHT22;51144;53.002;6.506;2023-05-07T10:45:37;17.70;99.90
64715;DHT22;51144;53.002;6.506;2023-05-07T10:50:35;18.00;99.90
64715;DHT22;51144;53.002;6.506;2023-05-07T10:55:42;18.30;99.90
64715;DHT22;51144;53.002;6.506;2023-05-07T11:00:55;18.50;99.90
64715;DHT22;51144;53.002;6.506;2023-05-07T11:03:21;18.80;99.90
64715;DHT22;51144;53.002;6.506;2023-05-07T11:05:47;19.10;99.90
64715;DHT22;51144;53.002;6.506;2023-05-07T11:08:52;18.90;99.90
64715;DHT22;51144;53.002;6.506;2023-05-07T11:11:17;18.70;99.90
64715;DHT22;51144;53.002;6.506;2023-05-07T11:13:46;18.80;99.90
64715;DHT22;51144;53.002;6.506;2023-05-07T11:16:19;18.80;99.90
64715;DHT22;51144;53.002;6.506;2023-05-07T11:18:46;18.90;99.90
64715;DHT22;51144;53.002;6.506;2023-05-07T11:21:11;18.90;99.90
64715;DHT22;51144;53.002;6.506;2023-05-07T11:28:36;19.30;99.90
64715;DHT22;51144;53.002;6.506;2023-05-07T11:31:02;19.50;99.90
64715;DHT22;51144;53.002;6.506;2023-05-07T11:33:28;19.70;99.90
64715;DHT22;51144;53.002;6.506;2023-05-07T11:35:54;19.40;99.90
64715;DHT22;51144;53.002;6.506;2023-05-07T11:38:20;19.30;99.90
64715;DHT22;51144;53.002;6.506;2023-05-07T11:40:49;19.10;99.90
64715;DHT22;51144;53.002;6.506;2023-05-07T11:43:15;19.20;99.90
64715;DHT22;51144;53.002;6.506;2023-05-07T11:45:40;19.40;99.90
64715;DHT22;51144;53.002;6.506;2023-05-07T11:48:06;19.40;99.90
64715;DHT22;51144;53.002;6.506;2023-05-07T11:50:31;19.20;99.90
64715;DHT22;51144;53.002;6.506;2023-05-07T11:52:57;19.10;99.90
64715;DHT22;51144;53.002;6.506;2023-05-07T11:55:23;19.10;99.90
64715;DHT22;51144;53.002;6.506;2023-05-07T11:57:50;19.30;99.90
64715;DHT22;51144;53.002;6.506;2023-05-07T12:00:16;19.50;99.90
64715;DHT22;51144;53.002;6.506;2023-05-07T12:02:41;19.60;99.90
64715;DHT22;51144;53.002;6.506;2023-05-07T12:05:07;19.50;99.90
64715;DHT22;51144;53.002;6.506;2023-05-07T12:07:34;19.50;99.90
64715;DHT22;51144;53.002;6.506;2023-05-07T12:10:04;19.30;99.90
64715;DHT22;51144;53.002;6.506;2023-05-07T12:12:29;19.50;99.90
64715;DHT22;51144;53.002;6.506;2023-05-07T12:14:55;19.70;99.90
64715;DHT22;51144;53.002;6.506;2023-05-07T12:17:20;19.80;99.90
64715;DHT22;51144;53.002;6.506;2023-05-07T12:19:46;19.70;99.90
64715;DHT22;51144;53.002;6.506;2023-05-07T12:22:12;19.60;99.90
64715;DHT22;51144;53.002;6.506;2023-05-07T12:24:44;19.80;99.90
64715;DHT22;51144;53.002;6.506;2023-05-07T12:27:10;19.90;99.90
64715;DHT22;51144;53.002;6.506;2023-05-07T12:29:36;19.70;99.90
64715;DHT22;51144;53.002;6.506;2023-05-07T12:32:05;19.70;99.90
64715;DHT22;51144;53.002;6.506;2023-05-07T12:34:31;19.80;99.90
64715;DHT22;51144;53.002;6.506;2023-05-07T12:36:56;20.10;99.90
64715;DHT22;51144;53.002;6.506;2023-05-07T12:39:22;19.90;99.90
64715;DHT22;51144;53.002;6.506;2023-05-07T12:41:57;20.00;99.90
64715;DHT22;51144;53.002;6.506;2023-05-07T12:44:24;20.10;99.90
64715;DHT22;51144;53.002;6.506;2023-05-07T12:46:50;20.00;99.90
64715;DHT22;51144;53.002;6.506;2023-05-07T12:49:16;19.80;99.90
64715;DHT22;51144;53.002;6.506;2023-05-07T12:51:43;19.80;99.90
64715;DHT22;51144;53.002;6.506;2023-05-07T12:54:09;19.90;99.90
64715;DHT22;51144;53.002;6.506;2023-05-07T12:56:37;20.00;99.90
64715;DHT22;51144;53.002;6.506;2023-05-07T12:59:03;20.30;99.90
64715;DHT22;51144;53.002;6.506;2023-05-07T13:01:29;20.60;99.90
64715;DHT22;51144;53.002;6.506;2023-05-07T13:03:56;20.60;99.90
64715;DHT22;51144;53.002;6.506;2023-05-07T13:06:25;20.30;99.90
64715;DHT22;51144;53.002;6.506;2023-05-07T13:08:51;20.30;99.90
64715;DHT22;51144;53.002;6.506;2023-05-07T13:11:17;20.30;99.90
64715;DHT22;51144;53.002;6.506;2023-05-07T13:13:42;20.30;99.90
64715;DHT22;51144;53.002;6.506;2023-05-07T13:16:09;20.50;99.90
64715;DHT22;51144;53.002;6.506;2023-05-07T13:18:37;20.50;99.90
64715;DHT22;51144;53.002;6.506;2023-05-07T13:21:03;20.50;99.90
64715;DHT22;51144;53.002;6.506;2023-05-07T13:23:29;20.30;99.90
64715;DHT22;51144;53.002;6.506;2023-05-07T13:25:55;20.40;99.90
64715;DHT22;51144;53.002;6.506;2023-05-07T13:28:21;20.80;99.90
64715;DHT22;51144;53.002;6.506;2023-05-07T13:30:47;20.70;99.90
64715;DHT22;51144;53.002;6.506;2023-05-07T13:33:13;20.50;99.90
64715;DHT22;51144;53.002;6.506;2023-05-07T13:35:38;20.30;99.90
64715;DHT22;51144;53.002;6.506;2023-05-07T13:38:04;20.20;99.90
64715;DHT22;51144;53.002;6.506;2023-05-07T13:40:30;20.40;99.90
64715;DHT22;51144;53.002;6.506;2023-05-07T13:42:58;19.90;99.90
64715;DHT22;51144;53.002;6.506;2023-05-07T13:45:24;20.00;99.90
64715;DHT22;51144;53.002;6.506;2023-05-07T13:47:51;20.20;99.90
64715;DHT22;51144;53.002;6.506;2023-05-07T13:50:16;20.60;99.90
64715;DHT22;51144;53.002;6.506;2023-05-07T13:52:42;21.00;99.90
64715;DHT22;51144;53.002;6.506;2023-05-07T13:55:09;21.00;99.90
64715;DHT22;51144;53.002;6.506;2023-05-07T13:57:35;21.20;99.90
64715;DHT22;51144;53.002;6.506;2023-05-07T14:00:00;21.50;99.90
64715;DHT22;51144;53.002;6.506;2023-05-07T14:02:26;21.60;99.90
64715;DHT22;51144;53.002;6.506;2023-05-07T14:04:51;21.60;99.90
64715;DHT22;51144;53.002;6.506;2023-05-07T14:07:17;21.50;99.90
64715;DHT22;51144;53.002;6.506;2023-05-07T14:09:42;21.40;99.90
64715;DHT22;51144;53.002;6.506;2023-05-07T14:12:08;21.20;99.90
64715;DHT22;51144;53.002;6.506;2023-05-07T14:14:34;21.40;99.90
64715;DHT22;51144;53.002;6.506;2023-05-07T14:16:59;21.40;99.90
64715;DHT22;51144;53.002;6.506;2023-05-07T14:19:25;21.20;99.90
64715;DHT22;51144;53.002;6.506;2023-05-07T14:21:50;21.50;99.90
64715;DHT22;51144;53.002;6.506;2023-05-07T14:24:16;20.80;99.90
64715;DHT22;51144;53.002;6.506;2023-05-07T14:26:42;20.80;99.90
64715;DHT22;51144;53.002;6.506;2023-05-07T14:29:07;20.30;99.90
64715;DHT22;51144;53.002;6.506;2023-05-07T14:31:33;20.10;99.90
64715;DHT22;51144;53.002;6.506;2023-05-07T14:33:58;20.00;99.90
64715;DHT22;51144;53.002;6.506;2023-05-07T14:36:24;19.90;99.90
64715;DHT22;51144;53.002;6.506;2023-05-07T14:38:54;20.00;99.90
64715;DHT22;51144;53.002;6.506;2023-05-07T14:41:20;20.20;99.90
64715;DHT22;51144;53.002;6.506;2023-05-07T14:43:46;20.40;99.90
64715;DHT22;51144;53.002;6.506;2023-05-07T14:46:16;20.60;99.90
64715;DHT22;51144;53.002;6.506;2023-05-07T14:48:41;20.80;99.90
64715;DHT22;51144;53.002;6.506;2023-05-07T14:51:07;20.80;99.90
64715;DHT22;51144;53.002;6.506;2023-05-07T14:53:32;21.00;99.90
64715;DHT22;51144;53.002;6.506;2023-05-07T14:55:58;21.20;99.90
64715;DHT22;51144;53.002;6.506;2023-05-07T14:58:24;21.20;99.90
64715;DHT22;51144;53.002;6.506;2023-05-07T15:00:50;21.20;99.90
64715;DHT22;51144;53.002;6.506;2023-05-07T15:03:15;20.90;99.90
64715;DHT22;51144;53.002;6.506;2023-05-07T15:05:41;20.70;99.90
64715;DHT22;51144;53.002;6.506;2023-05-07T15:08:06;20.50;99.90
64715;DHT22;51144;53.002;6.506;2023-05-07T15:10:34;20.30;99.90
64715;DHT22;51144;53.002;6.506;2023-05-07T15:13:05;20.20;99.90
64715;DHT22;51144;53.002;6.506;2023-05-07T15:15:30;20.20;99.90
64715;DHT22;51144;53.002;6.506;2023-05-07T15:17:56;20.20;99.90
64715;DHT22;51144;53.002;6.506;2023-05-07T15:20:21;19.90;99.90
64715;DHT22;51144;53.002;6.506;2023-05-07T15:22:47;19.80;99.90
64715;DHT22;51144;53.002;6.506;2023-05-07T15:25:13;19.70;99.90
64715;DHT22;51144;53.002;6.506;2023-05-07T15:27:38;19.80;99.90
64715;DHT22;51144;53.002;6.506;2023-05-07T15:30:04;19.90;99.90
64715;DHT22;51144;53.002;6.506;2023-05-07T15:32:30;20.00;99.90
64715;DHT22;51144;53.002;6.506;2023-05-07T15:34:55;19.80;99.90
64715;DHT22;51144;53.002;6.506;2023-05-07T15:37:21;19.80;99.90